KHOP/HOP METAR and TAF weather

Enter ICAO airport designator
Station Type Date Time Source
KHOP METAR 2020/09/22 23:56 UTC NOAA

KHOP 222356Z AUTO 00000KT 10SM CLR 17/15 A3015 RMK AO2 SLP211 T01740145 10206 20174 56008


Station Type Date Time Source
KHOP Decoded METAR 2020/09/22 23:56 UTC NOAA

Fort Campbell U. S. Army Airfield, KY, United States (KHOP) 36-40N 087-30W 174M
Sep 22, 2020 - 07:56 PM EDT / 2020.09.22 2356 UTC
Wind: Calm:0
Visibility: 10 mile(s):0
Sky conditions: clear
Temperature: 63.3 F (17.4 C)
Dew Point: 58.1 F (14.5 C)
Relative Humidity: 83%
Pressure (altimeter): 30.15 in. Hg (1020 hPa)
Pressure tendency: 0.02 inches (0.8 hPa) lower than three hours ago
ob: KHOP 222356Z AUTO 00000KT 10SM CLR 17/15 A3015 RMK AO2 SLP211 T01740145 10206 20174 56008
cycle: 0

Station Type Date Time Source
KHOP TAF 2020/09/23 00:09 UTC NOAA

TAF KHOP 230000Z 2300/2406 09006KT 9999 SCT050 BKN120 OVC180 QNH3012INS
BECMG 2320/2321 16006KT 8000 -SHRA OVC030 QNH3005INS
BECMG 2400/2401 12006KT 8000 -SHRA OVC010 QNH3002INS TX20/2320Z TN15/2312Z

Example: see airport list